Time;durP1;ratioP1;P1;durP2;ratioP2;P2;SDS_P1;SDS_P2;PMS_P1;PMS_P2;Temp;Humidity;BMP_temperature;BMP_pressure;BME280_temperature;BME280_humidity;BME280_pressure;Samples;Min_cycle;Max_cycle;Signal;HPM_P1;HPM_P2
2021/11/29 00:01:25;;;;;;;44.90;30.73;;;;;;;10.95;66.38;98638.25;4996453;28;20207;-73
2021/11/29 00:03:51;;;;;;;50.30;33.10;;;;;;;11.40;64.83;98633.38;4997259;28;20077;-73
2021/11/29 00:06:17;;;;;;;40.13;30.63;;;;;;;11.30;65.26;98623.19;5000244;28;20038;-73
2021/11/29 00:08:45;;;;;;;37.63;31.77;;;;;;;11.85;63.58;98624.00;4996277;28;20080;-74
2021/11/29 00:11:10;;;;;;;44.75;32.53;;;;;;;12.49;61.06;98572.69;4998114;28;20046;-75
2021/11/29 00:13:36;;;;;;;43.17;31.45;;;;;;;12.93;59.33;98559.59;4993567;28;20066;-73
2021/11/29 00:16:01;;;;;;;45.85;29.65;;;;;;;13.13;58.79;98582.50;4992363;28;21191;-73
2021/11/29 00:18:27;;;;;;;40.75;30.95;;;;;;;13.29;58.60;98621.34;4999477;28;20482;-73
2021/11/29 00:20:52;;;;;;;38.25;31.58;;;;;;;12.78;59.30;98592.63;4994081;28;20145;-73
2021/11/29 00:23:18;;;;;;;42.05;32.45;;;;;;;13.26;58.54;98613.56;4989123;28;20061;-71
2021/11/29 00:25:44;;;;;;;44.50;33.78;;;;;;;13.43;58.05;98612.91;4994973;28;20065;-75
2021/11/29 00:28:10;;;;;;;42.35;33.05;;;;;;;13.37;58.04;98612.28;4996493;28;20050;-72
2021/11/29 00:30:37;;;;;;;42.03;32.28;;;;;;;12.99;58.71;98601.47;4989831;28;20760;-73
2021/11/29 00:33:04;;;;;;;45.17;34.55;;;;;;;13.36;57.94;98624.59;4995032;28;20061;-72
2021/11/29 00:35:29;;;;;;;51.08;32.47;;;;;;;13.47;57.59;98629.44;5000211;28;20375;-71
2021/11/29 00:37:55;;;;;;;48.50;33.42;;;;;;;13.47;57.82;98634.72;5000432;28;20124;-73
2021/11/29 00:40:20;;;;;;;43.75;33.08;;;;;;;13.08;58.46;98606.38;4993506;28;20388;-73
2021/11/29 00:42:46;;;;;;;40.58;31.88;;;;;;;13.38;58.38;98621.91;5001702;28;20023;-73
2021/11/29 00:45:11;;;;;;;37.92;30.90;;;;;;;13.21;58.70;98612.03;4994245;28;20046;-72
2021/11/29 00:47:38;;;;;;;43.13;31.42;;;;;;;12.96;59.34;98593.69;4990089;28;20038;-73
2021/11/29 00:50:07;;;;;;;46.28;33.95;;;;;;;13.08;59.06;98582.69;4983374;28;20054;-75
2021/11/29 00:52:33;;;;;;;39.70;32.35;;;;;;;13.17;58.89;98568.28;4988761;28;20050;-74
2021/11/29 00:54:58;;;;;;;58.47;31.70;;;;;;;13.28;58.67;98590.69;4987829;28;20042;-73
2021/11/29 00:57:24;;;;;;;43.60;32.10;;;;;;;13.32;58.12;98564.19;4986077;28;20410;-74
2021/11/29 00:59:49;;;;;;;36.50;31.23;;;;;;;13.22;58.66;98580.34;4980729;28;20045;-75
2021/11/29 01:02:16;;;;;;;40.72;33.30;;;;;;;13.17;59.03;98566.50;4979776;28;20093;-74
2021/11/29 01:04:43;;;;;;;41.42;29.15;;;;;;;13.36;58.05;98544.72;4975618;28;20516;-74
2021/11/29 01:07:08;;;;;;;37.72;27.75;;;;;;;13.15;58.99;98517.47;4982715;28;20035;-73
2021/11/29 01:09:34;;;;;;;41.28;29.65;;;;;;;13.36;58.57;98527.13;4984663;28;20497;-72
2021/11/29 01:12:00;;;;;;;44.00;30.00;;;;;;;13.15;58.47;98506.94;4979400;28;20026;-74
2021/11/29 01:14:25;;;;;;;37.55;29.20;;;;;;;12.91;59.47;98541.22;4998395;28;20053;-73
2021/11/29 01:16:51;;;;;;;41.70;29.50;;;;;;;12.18;61.66;98534.38;4998975;28;20041;-72
2021/11/29 01:19:17;;;;;;;48.90;28.92;;;;;;;12.44;60.87;98500.06;5035417;28;20407;-73
2021/11/29 01:21:42;;;;;;;35.72;27.25;;;;;;;13.11;59.17;98537.81;4997946;28;20093;-74
2021/11/29 01:24:08;;;;;;;30.20;26.88;;;;;;;13.32;58.53;98527.31;4984666;28;20046;-74
2021/11/29 01:26:33;;;;;;;35.20;31.13;;;;;;;13.57;58.08;98532.44;4980504;28;20398;-73
2021/11/29 01:28:59;;;;;;;39.47;31.15;;;;;;;13.16;59.12;98527.06;4990489;28;20050;-71
2021/11/29 01:31:24;;;;;;;35.92;29.23;;;;;;;13.38;58.26;98524.44;4983850;28;20491;-72
2021/11/29 01:33:50;;;;;;;37.55;31.27;;;;;;;12.80;59.47;98517.94;4979521;28;20030;-70
2021/11/29 01:36:15;;;;;;;34.85;29.50;;;;;;;11.28;63.81;98494.56;4984097;28;20414;-71
2021/11/29 01:38:41;;;;;;;39.30;28.38;;;;;;;11.50;64.32;98515.72;4977214;28;20043;-72
2021/11/29 01:41:07;;;;;;;39.38;29.90;;;;;;;11.56;64.23;98517.28;4981309;28;20484;-70
2021/11/29 01:43:32;;;;;;;42.83;32.00;;;;;;;11.55;63.58;98487.53;4984429;28;20047;-70
2021/11/29 01:45:58;;;;;;;31.45;27.90;;;;;;;12.00;62.34;98494.69;4991151;28;20078;-72
2021/11/29 01:48:25;;;;;;;37.67;29.58;;;;;;;12.06;62.22;98498.88;4984508;28;20077;-71
2021/11/29 01:50:55;;;;;;;36.85;28.52;;;;;;;11.77;63.22;98502.53;4981598;28;20096;-72
2021/11/29 01:53:22;;;;;;;37.58;27.98;;;;;;;11.61;63.55;98492.56;4984102;28;20779;-73
2021/11/29 01:55:51;;;;;;;39.13;28.27;;;;;;;12.02;62.75;98478.88;4983354;28;20050;-71
2021/11/29 01:58:17;;;;;;;50.83;34.25;;;;;;;12.45;61.82;98486.00;4982702;28;20051;-71
2021/11/29 02:00:55;;;;;;;46.20;33.90;;;;;;;11.13;64.86;98460.97;4982632;28;20386;-73
2021/11/29 02:03:23;;;;;;;42.28;31.33;;;;;;;11.49;64.35;98465.88;4979407;28;20042;-72
2021/11/29 02:05:50;;;;;;;47.50;33.05;;;;;;;11.66;64.45;98481.91;4980794;28;20046;-73
2021/11/29 02:08:16;;;;;;;44.70;32.13;;;;;;;11.92;63.16;98475.75;4978649;28;20050;-73
2021/11/29 02:10:41;;;;;;;49.70;32.30;;;;;;;12.38;61.71;98476.63;4984434;28;20051;-73
2021/11/29 02:13:07;;;;;;;43.53;30.63;;;;;;;12.50;61.33;98475.28;4983797;28;20046;-73
2021/11/29 02:15:33;;;;;;;44.92;31.67;;;;;;;11.96;62.66;98474.72;4974258;28;20030;-73
2021/11/29 02:17:59;;;;;;;45.30;32.60;;;;;;;11.20;65.40;98471.22;4985605;28;20172;-72
2021/11/29 02:20:30;;;;;;;47.75;31.08;;;;;;;11.19;65.79;98458.13;4985087;28;20410;-73
2021/11/29 02:22:55;;;;;;;37.85;29.15;;;;;;;10.59;66.95;98415.53;4985632;28;20046;-73
2021/11/29 02:25:21;;;;;;;37.60;28.58;;;;;;;11.49;64.84;98442.22;4976974;28;20129;-73
2021/11/29 02:27:49;;;;;;;45.92;32.20;;;;;;;10.94;66.78;98445.00;4989609;28;20038;-74
2021/11/29 02:30:16;;;;;;;36.92;28.58;;;;;;;10.86;66.78;98436.50;4981221;28;20034;-73
2021/11/29 02:32:42;;;;;;;39.25;30.48;;;;;;;11.03;66.39;98425.44;4981336;28;20046;-74
2021/11/29 02:35:08;;;;;;;36.25;29.20;;;;;;;11.96;63.38;98405.50;4985594;28;20057;-74
2021/11/29 02:37:33;;;;;;;44.95;30.92;;;;;;;12.59;61.70;98418.81;4980747;28;20042;-73
2021/11/29 02:41:03;;;;;;;41.47;30.17;;;;;;;13.07;60.11;98429.09;5077261;27;20582;-73
2021/11/29 02:43:29;;;;;;;37.63;29.08;;;;;;;12.65;61.15;98422.06;5060238;28;20051;-72
2021/11/29 02:45:54;;;;;;;38.42;29.33;;;;;;;11.59;63.41;98396.34;5065217;28;20048;-74
2021/11/29 02:48:41;;;;;;;36.35;29.40;;;;;;;11.50;64.43;98407.19;5084426;28;20051;-74
2021/11/29 02:51:07;;;;;;;45.75;32.30;;;;;;;10.72;67.19;98402.84;5058277;28;20049;-73
2021/11/29 02:53:33;;;;;;;42.40;28.75;;;;;;;11.09;65.53;98370.13;5079917;28;20377;-73
2021/11/29 02:55:58;;;;;;;37.35;27.45;;;;;;;11.16;65.56;98374.25;5082866;28;20044;-73
2021/11/29 02:58:24;;;;;;;34.97;27.63;;;;;;;11.93;64.17;98398.59;5078580;28;20048;-74
2021/11/29 03:00:49;;;;;;;46.33;30.05;;;;;;;12.44;62.42;98363.28;5080777;28;20130;-74
2021/11/29 03:03:15;;;;;;;35.35;27.90;;;;;;;13.02;61.58;98398.63;5077229;28;20055;-72
2021/11/29 03:05:40;;;;;;;45.33;27.55;;;;;;;13.03;61.29;98366.09;5082997;28;20052;-72
2021/11/29 03:08:06;;;;;;;35.72;26.60;;;;;;;13.24;60.89;98380.97;5079829;28;20048;-73
2021/11/29 03:10:32;;;;;;;38.03;26.92;;;;;;;13.20;60.48;98384.66;5079454;28;20040;-73
2021/11/29 03:15:14;;;;;;;39.85;26.60;;;;;;;11.01;66.49;98345.94;5018315;27;20643;-71
2021/11/29 03:17:40;;;;;;;30.95;25.98;;;;;;;11.18;67.99;98385.56;5001090;28;20501;-73
2021/11/29 03:20:10;;;;;;;39.20;27.55;;;;;;;10.77;69.08;98357.22;4996864;28;20058;-72
2021/11/29 03:22:36;;;;;;;33.83;27.10;;;;;;;10.77;69.22;98361.63;4997882;28;20050;-74
2021/11/29 03:27:03;;;;;;;37.47;29.33;;;;;;;10.10;70.98;98334.03;4999853;27;20661;-74
2021/11/29 03:29:28;;;;;;;47.65;31.25;;;;;;;10.28;71.16;98365.81;5001845;28;20122;-74
2021/11/29 03:31:59;;;;;;;53.10;31.83;;;;;;;10.61;69.81;98376.16;5000022;28;20503;-74
2021/11/29 03:34:25;;;;;;;38.42;29.30;;;;;;;11.53;66.98;98337.00;5003141;28;20088;-73
2021/11/29 03:36:52;;;;;;;41.78;30.15;;;;;;;11.95;65.69;98361.75;4998252;28;20030;-73
2021/11/29 03:39:22;;;;;;;37.92;29.48;;;;;;;12.45;64.84;98383.44;5003202;28;20048;-74
2021/11/29 03:41:49;;;;;;;33.38;29.80;;;;;;;11.96;64.97;98379.22;5002611;28;20046;-74
2021/11/29 03:44:15;;;;;;;42.25;31.38;;;;;;;11.09;68.38;98388.50;4998306;28;20046;-74
2021/11/29 03:46:42;;;;;;;36.63;30.67;;;;;;;10.79;70.07;98372.88;5003128;28;20076;-73
2021/11/29 03:49:08;;;;;;;40.85;31.08;;;;;;;11.67;67.10;98362.75;4998881;28;20046;-72
2021/11/29 03:51:33;;;;;;;48.15;31.17;;;;;;;11.88;67.44;98369.00;4985294;28;20041;-72
2021/11/29 03:53:59;;;;;;;50.90;31.60;;;;;;;12.55;65.72;98388.28;5000251;28;20516;-73
2021/11/29 03:56:24;;;;;;;43.70;27.88;;;;;;;12.82;65.78;98381.88;5001376;28;20047;-72
2021/11/29 03:58:50;;;;;;;32.28;26.88;;;;;;;11.44;68.08;98339.13;5002466;28;20050;-73
2021/11/29 04:01:16;;;;;;;35.45;29.85;;;;;;;10.02;73.87;98345.63;4999236;28;20054;-73
2021/11/29 04:03:41;;;;;;;35.45;27.90;;;;;;;10.40;73.02;98333.13;5002471;28;20034;-73
2021/11/29 04:06:07;;;;;;;41.22;28.02;;;;;;;9.50;76.90;98314.03;4998966;28;20053;-72
2021/11/29 04:08:32;;;;;;;38.88;27.95;;;;;;;10.09;75.47;98284.28;4999931;28;20096;-74
2021/11/29 04:10:58;;;;;;;32.25;27.80;;;;;;;10.67;73.81;98305.09;4999668;28;20057;-73
2021/11/29 04:13:23;;;;;;;42.53;27.83;;;;;;;11.53;71.37;98299.38;4999889;28;20520;-73
2021/11/29 04:15:49;;;;;;;38.47;27.33;;;;;;;11.29;70.80;98282.78;5002584;28;20029;-74
2021/11/29 04:18:15;;;;;;;35.42;26.23;;;;;;;11.39;71.35;98273.66;4997539;28;20048;-74
2021/11/29 04:20:41;;;;;;;35.28;27.70;;;;;;;12.10;69.96;98302.44;5002776;28;22472;-74
2021/11/29 04:23:07;;;;;;;37.40;28.25;;;;;;;12.16;69.61;98299.59;4998122;28;20133;-74
2021/11/29 04:25:40;;;;;;;37.60;26.40;;;;;;;12.19;69.13;98266.13;4998226;28;20062;-73
2021/11/29 04:28:06;;;;;;;38.50;27.55;;;;;;;12.34;68.67;98269.03;5002254;28;20038;-74
2021/11/29 04:30:31;;;;;;;38.90;26.35;;;;;;;12.43;68.39;98314.25;4997708;28;20038;-73
2021/11/29 04:32:57;;;;;;;43.08;30.63;;;;;;;11.36;70.65;98281.66;5002353;28;20037;-73
2021/11/29 04:35:25;;;;;;;38.17;26.35;;;;;;;11.50;70.47;98307.41;4998512;28;20050;-73
2021/11/29 04:37:50;;;;;;;36.35;28.90;;;;;;;10.03;75.68;98305.44;4990452;28;20061;-73
2021/11/29 04:40:16;;;;;;;32.10;25.23;;;;;;;10.09;75.57;98284.28;4987656;28;20490;-74
2021/11/29 04:42:42;;;;;;;38.45;28.35;;;;;;;9.70;77.48;98308.22;4985816;28;20109;-72
2021/11/29 04:45:08;;;;;;;36.30;29.35;;;;;;;9.35;78.90;98294.41;4989026;28;20037;-72
2021/11/29 04:47:34;;;;;;;35.22;24.92;;;;;;;9.80;77.97;98298.31;4984940;28;20065;-73
2021/11/29 04:50:00;;;;;;;36.13;28.52;;;;;;;9.88;77.48;98305.03;4987619;28;20529;-72
2021/11/29 04:52:25;;;;;;;34.50;24.15;;;;;;;10.80;74.58;98300.31;4986080;28;20402;-72
2021/11/29 04:55:06;;;;;;;28.17;24.63;;;;;;;10.98;72.39;98273.41;5068554;28;21329;-73
2021/11/29 04:57:32;;;;;;;34.83;28.15;;;;;;;10.78;73.68;98298.56;5021213;28;20042;-72
2021/11/29 04:59:57;;;;;;;29.27;25.33;;;;;;;9.48;77.32;98276.56;5019717;28;20465;-73
2021/11/29 05:02:23;;;;;;;31.98;26.08;;;;;;;9.79;77.57;98300.06;5030381;28;20042;-72
2021/11/29 05:04:48;;;;;;;36.00;27.08;;;;;;;10.00;76.25;98271.50;5019581;28;20041;-72
2021/11/29 05:07:15;;;;;;;30.58;26.35;;;;;;;10.54;74.39;98287.19;5030441;28;20417;-73
2021/11/29 05:09:42;;;;;;;37.10;28.27;;;;;;;10.52;73.80;98301.25;5019607;28;20030;-72
2021/11/29 05:12:14;;;;;;;35.83;28.25;;;;;;;10.24;75.47;98314.38;5020648;28;20040;-74
2021/11/29 05:14:40;;;;;;;35.85;29.50;;;;;;;10.38;74.26;98308.72;5022118;28;20053;-71
2021/11/29 05:17:05;;;;;;;37.03;30.65;;;;;;;10.73;73.82;98324.13;5018545;28;20085;-72
2021/11/29 05:19:31;;;;;;;37.00;29.38;;;;;;;10.91;72.79;98317.38;5021191;28;20092;-70
2021/11/29 05:21:56;;;;;;;41.53;29.60;;;;;;;10.71;73.36;98277.88;5021940;28;20046;-72
2021/11/29 05:24:22;;;;;;;39.33;33.33;;;;;;;11.40;71.59;98307.72;5016236;28;20029;-70
2021/11/29 05:29:05;;;;;;;40.42;29.15;;;;;;;10.72;72.72;98283.06;5093110;27;21245;-72
2021/11/29 05:31:31;;;;;;;35.63;30.40;;;;;;;11.75;70.56;98315.16;5070478;28;20059;-71
2021/11/29 05:33:56;;;;;;;45.00;34.35;;;;;;;10.45;73.71;98299.75;5059857;28;20049;-72
2021/11/29 05:36:22;;;;;;;38.60;33.40;;;;;;;9.80;76.28;98316.66;5055128;28;20032;-72
2021/11/29 05:38:47;;;;;;;49.05;34.80;;;;;;;10.12;75.16;98298.16;5059804;28;20053;-72
2021/11/29 05:41:13;;;;;;;39.88;32.92;;;;;;;9.73;76.90;98285.41;5058549;28;20048;-72
2021/11/29 05:43:39;;;;;;;47.80;38.65;;;;;;;10.03;77.07;98302.84;5063121;28;20083;-72
2021/11/29 05:46:04;;;;;;;51.20;36.83;;;;;;;10.83;74.65;98315.94;5058784;28;20057;-72
2021/11/29 05:48:30;;;;;;;49.70;35.13;;;;;;;11.60;71.29;98301.72;5060463;28;20044;-71
2021/11/29 05:50:57;;;;;;;39.45;34.00;;;;;;;11.50;70.55;98289.84;5059676;28;20045;-72
2021/11/29 05:53:24;;;;;;;43.85;31.50;;;;;;;11.79;70.21;98319.41;5057954;27;20060;-71
2021/11/29 05:55:49;;;;;;;41.58;33.85;;;;;;;11.85;69.55;98313.91;5065580;27;20058;-72
2021/11/29 05:58:15;;;;;;;44.13;34.13;;;;;;;12.13;69.21;98329.47;5057718;27;20041;-72
2021/11/29 06:00:41;;;;;;;41.97;33.95;;;;;;;12.46;67.68;98321.16;5060677;28;20044;-72
2021/11/29 06:03:06;;;;;;;31.77;28.38;;;;;;;12.60;67.02;98326.69;5060570;28;20480;-73
2021/11/29 06:05:32;;;;;;;40.22;29.30;;;;;;;12.83;66.48;98320.44;5059573;28;20407;-73
2021/11/29 06:09:06;;;;;;;41.90;31.63;;;;;;;12.95;65.67;98320.84;5068296;27;20644;-73
2021/11/29 06:11:31;;;;;;;38.88;32.15;;;;;;;13.14;65.74;98353.34;5011826;28;20046;-72
2021/11/29 06:13:57;;;;;;;41.08;30.35;;;;;;;12.78;66.85;98329.44;5005375;28;20042;-73
2021/11/29 06:16:22;;;;;;;37.33;31.85;;;;;;;12.12;68.20;98290.09;5006758;28;20509;-71
2021/11/29 06:18:48;;;;;;;39.92;31.95;;;;;;;12.32;67.97;98324.34;5005157;28;20044;-71
2021/11/29 06:21:13;;;;;;;41.22;30.73;;;;;;;12.18;68.39;98297.75;5007781;28;20593;-72
2021/11/29 06:23:39;;;;;;;35.10;29.85;;;;;;;12.47;67.94;98291.28;5018565;28;20460;-73
2021/11/29 06:26:05;;;;;;;35.40;30.10;;;;;;;12.61;67.87;98290.69;5023898;28;20513;-71
2021/11/29 06:28:31;;;;;;;38.42;29.35;;;;;;;12.08;69.03;98285.88;5005357;28;20404;-73
2021/11/29 06:30:56;;;;;;;38.28;32.47;;;;;;;12.25;68.64;98296.59;5022338;28;20045;-70
2021/11/29 06:33:22;;;;;;;39.30;29.75;;;;;;;12.41;68.51;98288.91;5022549;28;20109;-72
2021/11/29 06:35:47;;;;;;;37.75;29.45;;;;;;;12.17;68.58;98252.19;5022129;28;20079;-72
2021/11/29 06:38:13;;;;;;;39.17;29.27;;;;;;;12.41;68.48;98281.03;5028347;28;20041;-71
2021/11/29 06:40:38;;;;;;;41.63;32.50;;;;;;;12.52;68.08;98283.19;5021614;28;20053;-72
2021/11/29 06:43:04;;;;;;;33.25;29.65;;;;;;;12.12;69.23;98269.06;5025108;28;20120;-73
2021/11/29 06:45:30;;;;;;;36.22;29.23;;;;;;;12.66;67.99;98254.50;5025236;28;20038;-71
2021/11/29 06:47:56;;;;;;;35.13;31.17;;;;;;;12.84;67.47;98250.22;5020542;28;20656;-72
2021/11/29 06:50:22;;;;;;;35.22;28.00;;;;;;;12.87;67.02;98269.38;5006336;28;20091;-71
2021/11/29 06:52:48;;;;;;;39.70;28.63;;;;;;;12.88;67.01;98247.41;5020644;28;20060;-74
2021/11/29 06:55:16;;;;;;;30.85;23.35;;;;;;;13.02;66.45;98259.09;5025537;28;20072;-74
2021/11/29 06:57:43;;;;;;;30.35;24.25;;;;;;;13.41;66.22;98289.84;5025875;28;20057;-72
2021/11/29 07:00:11;;;;;;;33.95;27.70;;;;;;;13.51;65.85;98281.47;5023559;28;20050;-71
2021/11/29 07:02:39;;;;;;;33.05;24.00;;;;;;;13.56;65.61;98272.50;5024847;28;20057;-71
2021/11/29 07:05:05;;;;;;;34.67;26.08;;;;;;;13.58;65.51;98268.84;5021365;28;20049;-71
2021/11/29 07:07:31;;;;;;;32.55;27.42;;;;;;;13.30;65.97;98266.66;5028763;28;20050;-71
2021/11/29 07:09:57;;;;;;;30.48;25.27;;;;;;;13.57;65.80;98304.03;5022509;28;20139;-71
2021/11/29 07:12:22;;;;;;;29.45;25.98;;;;;;;13.49;65.87;98325.47;5008433;28;20045;-71
2021/11/29 07:14:48;;;;;;;28.80;25.73;;;;;;;13.13;66.85;98311.25;5024129;28;20527;-71
2021/11/29 07:17:15;;;;;;;36.60;23.95;;;;;;;13.48;65.94;98315.81;5022699;28;20042;-71
2021/11/29 07:19:40;;;;;;;32.83;23.33;;;;;;;12.95;67.48;98312.94;5017354;28;20044;-70
2021/11/29 07:22:06;;;;;;;27.45;21.00;;;;;;;13.05;67.80;98316.88;5010682;28;20046;-70
2021/11/29 07:24:32;;;;;;;24.13;21.10;;;;;;;13.28;66.75;98269.34;5010226;28;20121;-71
2021/11/29 07:26:58;;;;;;;30.95;23.88;;;;;;;13.62;66.00;98266.91;5006017;28;20084;-70
2021/11/29 07:29:23;;;;;;;25.90;21.13;;;;;;;13.77;66.03;98291.72;5004343;28;20413;-71
2021/11/29 07:31:49;;;;;;;34.67;21.10;;;;;;;13.90;65.84;98316.53;5011366;28;20472;-71
2021/11/29 07:34:14;;;;;;;28.85;19.90;;;;;;;13.92;65.95;98307.63;4990387;28;20052;-71
2021/11/29 07:36:40;;;;;;;28.38;19.52;;;;;;;13.82;66.25;98300.25;5010905;28;20504;-70
2021/11/29 07:39:07;;;;;;;23.52;19.20;;;;;;;13.94;65.86;98282.06;5009000;28;20048;-71
2021/11/29 07:41:33;;;;;;;21.98;18.75;;;;;;;13.72;66.06;98247.13;5007631;28;20050;-71
2021/11/29 07:43:58;;;;;;;30.30;19.67;;;;;;;13.32;67.64;98222.63;5014941;28;20418;-72
2021/11/29 07:46:24;;;;;;;32.45;22.77;;;;;;;13.95;66.15;98235.44;4986803;28;20113;-74
2021/11/29 07:48:49;;;;;;;28.52;20.88;;;;;;;14.08;66.12;98220.72;4989617;28;20048;-71
2021/11/29 07:51:15;;;;;;;26.73;18.52;;;;;;;14.26;65.64;98229.53;5005068;28;20478;-71
2021/11/29 07:53:40;;;;;;;23.65;19.25;;;;;;;14.39;65.08;98236.81;4995851;28;20081;-71
2021/11/29 07:56:06;;;;;;;25.08;18.58;;;;;;;14.33;65.07;98251.19;5006322;28;20083;-71
2021/11/29 07:58:31;;;;;;;24.98;20.02;;;;;;;14.46;65.27;98249.59;5008231;28;20418;-71
2021/11/29 08:00:57;;;;;;;21.90;17.15;;;;;;;14.57;65.10;98251.75;5007662;28;20056;-73
2021/11/29 08:03:22;;;;;;;27.15;17.83;;;;;;;14.44;64.76;98232.16;5007904;28;20839;-72
2021/11/29 08:05:48;;;;;;;19.83;17.15;;;;;;;14.74;64.48;98264.06;5009861;28;20049;-71
2021/11/29 08:08:14;;;;;;;19.20;16.33;;;;;;;14.58;64.60;98253.44;5005167;28;20081;-71
2021/11/29 08:10:40;;;;;;;22.35;18.05;;;;;;;14.30;65.05;98231.06;5011295;28;20046;-70
2021/11/29 08:13:08;;;;;;;25.05;18.02;;;;;;;14.54;64.61;98236.06;4988409;28;20085;-73
2021/11/29 08:15:37;;;;;;;23.33;16.90;;;;;;;14.56;64.74;98253.53;5006750;28;20040;-70
2021/11/29 08:18:04;;;;;;;25.65;14.70;;;;;;;14.76;64.55;98292.09;5010873;28;20080;-72
2021/11/29 08:20:29;;;;;;;19.25;16.60;;;;;;;14.65;65.00;98312.91;5008556;28;20168;-71
2021/11/29 08:22:55;;;;;;;19.08;14.48;;;;;;;14.40;65.45;98302.72;5009372;28;20149;-72
2021/11/29 08:25:21;;;;;;;22.90;15.02;;;;;;;14.30;66.27;98333.09;4985998;28;20488;-71
2021/11/29 08:27:47;;;;;;;26.13;12.50;;;;;;;13.71;67.60;98335.84;5007701;28;20116;-71
2021/11/29 08:30:15;;;;;;;18.48;11.77;;;;;;;13.82;67.56;98350.34;5011346;28;20144;-71
2021/11/29 08:32:42;;;;;;;14.38;12.07;;;;;;;13.78;68.04;98352.25;4990214;28;20405;-71
2021/11/29 08:35:09;;;;;;;19.40;15.13;;;;;;;13.48;68.76;98320.25;5005262;28;20046;-73
2021/11/29 08:37:35;;;;;;;20.27;13.07;;;;;;;13.48;68.90;98334.28;5010889;28;20056;-73
2021/11/29 08:40:01;;;;;;;19.17;13.45;;;;;;;13.83;68.27;98376.59;5007205;28;20129;-72
2021/11/29 08:42:26;;;;;;;17.67;14.35;;;;;;;13.80;68.42;98374.13;5008219;28;20057;-67
2021/11/29 08:44:52;;;;;;;17.70;13.10;;;;;;;13.21;70.25;98375.00;4989942;28;20053;-72
2021/11/29 08:49:09;;;;;;;17.38;12.45;;;;;;;13.10;70.64;98336.81;5044811;28;20639;-70
2021/11/29 08:51:35;;;;;;;20.15;13.80;;;;;;;13.07;69.60;98304.50;5003186;28;20038;-70
2021/11/29 08:54:00;;;;;;;17.67;13.73;;;;;;;13.08;70.46;98320.22;5002949;28;20481;-69
2021/11/29 08:56:26;;;;;;;20.00;13.13;;;;;;;13.41;69.77;98300.38;5002566;28;20081;-67
2021/11/29 08:58:51;;;;;;;18.88;13.20;;;;;;;13.26;70.01;98331.72;5004545;28;20077;-69
2021/11/29 09:01:17;;;;;;;19.80;14.75;;;;;;;12.93;71.71;98368.28;4997497;28;20042;-74
2021/11/29 09:03:42;;;;;;;21.40;15.32;;;;;;;12.63;71.96;98344.13;4998714;28;20169;-73
2021/11/29 09:06:08;;;;;;;19.77;15.10;;;;;;;13.17;70.48;98284.72;4999649;28;20474;-72
2021/11/29 09:08:35;;;;;;;19.45;15.07;;;;;;;13.57;68.72;98311.94;5003409;28;20136;-72
2021/11/29 09:11:01;;;;;;;22.52;16.73;;;;;;;13.84;68.00;98301.88;5003540;28;20049;-72
2021/11/29 09:13:30;;;;;;;22.10;18.23;;;;;;;13.48;69.00;98334.28;5000126;28;20061;-72
2021/11/29 09:16:06;;;;;;;22.77;15.65;;;;;;;12.21;71.65;98322.13;5003074;28;20127;-72
2021/11/29 09:18:32;;;;;;;26.90;18.27;;;;;;;12.50;72.68;98364.78;5002678;28;20108;-72
2021/11/29 09:20:58;;;;;;;19.27;15.52;;;;;;;13.29;70.65;98339.50;5000602;28;20125;-72
2021/11/29 09:23:24;;;;;;;21.58;17.50;;;;;;;13.21;69.54;98311.78;5001130;28;20452;-71
2021/11/29 09:25:50;;;;;;;22.85;16.42;;;;;;;13.63;68.66;98358.25;5000474;28;20049;-74
2021/11/29 09:28:16;;;;;;;19.20;15.00;;;;;;;12.95;69.73;98347.16;5000209;28;20052;-74
2021/11/29 09:30:42;;;;;;;19.75;17.60;;;;;;;13.06;71.10;98416.88;4996709;28;20042;-74
2021/11/29 09:33:08;;;;;;;23.50;17.13;;;;;;;12.11;73.05;98407.56;5001135;28;20121;-72
2021/11/29 09:35:35;;;;;;;20.80;14.65;;;;;;;11.98;73.68;98399.25;4998879;28;20169;-71
2021/11/29 09:38:01;;;;;;;18.20;15.25;;;;;;;12.75;72.94;98434.84;4998208;28;20057;-73
2021/11/29 09:40:33;;;;;;;22.33;15.52;;;;;;;13.24;71.22;98412.56;5000512;28;20560;-73
2021/11/29 09:42:58;;;;;;;23.02;15.55;;;;;;;12.98;71.57;98397.91;4998951;28;20707;-73
2021/11/29 09:45:26;;;;;;;25.42;15.95;;;;;;;13.06;71.44;98387.03;4998474;28;20073;-71
2021/11/29 09:47:53;;;;;;;24.77;16.90;;;;;;;13.59;69.16;98343.50;4997427;28;20078;-66
2021/11/29 09:50:19;;;;;;;16.77;13.75;;;;;;;13.40;70.02;98381.19;4999594;28;20760;-67
2021/11/29 09:52:44;;;;;;;20.83;14.48;;;;;;;13.84;69.52;98382.75;4999974;28;20038;-68
2021/11/29 09:55:13;;;;;;;19.27;13.00;;;;;;;13.39;69.70;98400.56;4998629;28;20322;-67
2021/11/29 09:57:40;;;;;;;24.83;13.65;;;;;;;13.78;68.84;98340.84;5000679;28;20039;-67
2021/11/29 10:00:08;;;;;;;19.52;13.90;;;;;;;14.01;68.52;98413.63;4987503;28;20054;-68
2021/11/29 10:02:34;;;;;;;15.80;12.48;;;;;;;13.82;68.76;98408.34;4988240;28;20093;-68
2021/11/29 10:04:59;;;;;;;16.15;12.05;;;;;;;14.09;68.23;98396.53;4987901;28;20054;-70
2021/11/29 10:07:37;;;;;;;18.90;13.30;;;;;;;14.33;68.08;98406.84;4982843;28;20073;-72
2021/11/29 10:10:25;;;;;;;16.85;12.32;;;;;;;14.00;68.94;98439.13;4994415;28;20085;-72
2021/11/29 10:15:25;;;;;;;19.98;14.32;;;;;;;13.58;70.07;98460.34;5084015;27;20636;-72
2021/11/29 10:17:58;;;;;;;17.15;11.95;;;;;;;13.64;69.85;98460.09;5044120;28;20052;-73
2021/11/29 10:20:24;;;;;;;15.00;12.20;;;;;;;13.90;69.20;98449.22;5058991;28;20045;-74
2021/11/29 10:22:59;;;;;;;20.90;13.65;;;;;;;13.14;70.96;98418.31;5043605;28;20720;-74
2021/11/29 10:25:25;;;;;;;19.30;14.27;;;;;;;13.13;71.96;98417.44;5047867;28;20048;-70
2021/11/29 10:27:50;;;;;;;19.50;13.27;;;;;;;13.64;70.60;98405.59;5058629;28;20027;-72
2021/11/29 10:30:18;;;;;;;14.85;12.02;;;;;;;13.69;70.00;98393.06;5023241;28;20556;-71
2021/11/29 10:32:47;;;;;;;19.42;12.98;;;;;;;13.76;69.86;98396.28;5042621;28;20041;-73
2021/11/29 10:35:20;;;;;;;20.73;12.32;;;;;;;13.97;69.12;98357.50;5044137;28;20049;-72
2021/11/29 10:37:47;;;;;;;14.70;11.00;;;;;;;13.63;70.23;98401.25;5039864;28;20056;-71
2021/11/29 10:40:15;;;;;;;14.68;11.60;;;;;;;13.76;69.80;98414.72;5040583;28;20091;-72
2021/11/29 10:43:11;;;;;;;20.48;13.13;;;;;;;13.76;69.96;98408.59;5071829;27;20248;-76
2021/11/29 10:45:41;;;;;;;17.17;13.52;;;;;;;13.33;71.24;98394.72;5034867;28;20033;-73
2021/11/29 10:48:25;;;;;;;14.23;12.50;;;;;;;13.72;69.92;98371.00;5035981;28;20037;-73
2021/11/29 10:51:07;;;;;;;16.00;12.07;;;;;;;13.70;69.11;98373.69;5038980;28;20128;-74
2021/11/29 10:55:13;;;;;;;16.35;11.70;;;;;;;13.61;70.35;98402.25;5047753;28;20616;-75
2021/11/29 10:57:47;;;;;;;16.00;12.52;;;;;;;13.84;70.23;98412.59;4998081;28;20064;-74
2021/11/29 11:00:16;;;;;;;15.50;11.63;;;;;;;13.77;68.67;98383.97;5014023;28;20497;-74
2021/11/29 11:03:00;;;;;;;15.90;11.60;;;;;;;13.82;69.30;98381.97;4999600;28;20109;-76
2021/11/29 11:05:26;;;;;;;14.93;12.20;;;;;;;13.85;69.07;98384.47;5004320;28;20045;-74
2021/11/29 11:07:52;;;;;;;17.92;12.85;;;;;;;13.93;69.45;98409.56;4999065;28;20383;-75
2021/11/29 11:10:17;;;;;;;19.30;13.60;;;;;;;13.99;68.65;98408.41;4998230;28;21678;-74
2021/11/29 11:12:43;;;;;;;17.13;12.35;;;;;;;14.19;68.28;98430.34;5005666;28;20070;-73
2021/11/29 11:15:27;;;;;;;16.92;14.23;;;;;;;14.19;67.89;98420.69;5004067;28;20046;-72
2021/11/29 11:17:53;;;;;;;;;;;;;;;14.15;68.21;98427.88;5000516;28;20031;-74
2021/11/29 11:20:19;;;;;;;15.55;12.27;;;;;;;14.05;68.07;98423.94;5002684;28;20559;-73
2021/11/29 11:25:14;;;;;;;20.65;15.20;;;;;;;13.64;68.99;98389.78;5043979;27;20622;-74
2021/11/29 11:27:55;;;;;;;16.73;13.18;;;;;;;14.31;66.82;98379.66;5012931;28;20566;-70
2021/11/29 11:30:22;;;;;;;20.13;14.80;;;;;;;14.35;66.07;98358.34;4999775;28;20053;-71
2021/11/29 11:32:55;;;;;;;20.10;12.20;;;;;;;14.07;66.62;98387.81;5000437;28;20118;-69